sensor_id;sensor_type;location;lat;lon;timestamp;temperature;humidity
7708;DHT22;3896;48.758;8.888;2023-07-24T00:02:23;20.70;81.00
7708;DHT22;3896;48.758;8.888;2023-07-24T00:04:49;20.70;81.00
7708;DHT22;3896;48.758;8.888;2023-07-24T00:07:15;20.70;80.50
7708;DHT22;3896;48.758;8.888;2023-07-24T00:09:40;20.60;82.40
7708;DHT22;3896;48.758;8.888;2023-07-24T00:12:06;20.60;81.00
7708;DHT22;3896;48.758;8.888;2023-07-24T00:14:32;20.50;83.20
7708;DHT22;3896;48.758;8.888;2023-07-24T00:16:58;20.50;84.80
7708;DHT22;3896;48.758;8.888;2023-07-24T00:19:23;20.50;86.20
7708;DHT22;3896;48.758;8.888;2023-07-24T00:21:49;20.50;86.00
7708;DHT22;3896;48.758;8.888;2023-07-24T00:24:14;20.40;89.00
7708;DHT22;3896;48.758;8.888;2023-07-24T00:26:40;20.40;90.10
7708;DHT22;3896;48.758;8.888;2023-07-24T00:29:05;20.40;90.60
7708;DHT22;3896;48.758;8.888;2023-07-24T00:31:31;20.40;90.30
7708;DHT22;3896;48.758;8.888;2023-07-24T00:33:56;20.40;91.00
7708;DHT22;3896;48.758;8.888;2023-07-24T00:36:25;20.30;91.20
7708;DHT22;3896;48.758;8.888;2023-07-24T00:38:50;20.30;92.00
7708;DHT22;3896;48.758;8.888;2023-07-24T00:41:16;20.30;92.70
7708;DHT22;3896;48.758;8.888;2023-07-24T00:43:41;20.20;92.50
7708;DHT22;3896;48.758;8.888;2023-07-24T00:46:07;20.20;92.80
7708;DHT22;3896;48.758;8.888;2023-07-24T00:48:33;20.10;93.00
7708;DHT22;3896;48.758;8.888;2023-07-24T00:50:58;20.20;93.30
7708;DHT22;3896;48.758;8.888;2023-07-24T00:53:24;20.10;93.50
7708;DHT22;3896;48.758;8.888;2023-07-24T00:55:50;20.10;94.20
7708;DHT22;3896;48.758;8.888;2023-07-24T00:58:16;20.00;94.60
7708;DHT22;3896;48.758;8.888;2023-07-24T01:00:43;20.00;94.60
7708;DHT22;3896;48.758;8.888;2023-07-24T01:03:08;20.00;95.10
7708;DHT22;3896;48.758;8.888;2023-07-24T01:05:34;19.90;95.00
7708;DHT22;3896;48.758;8.888;2023-07-24T01:07:59;19.90;94.70
7708;DHT22;3896;48.758;8.888;2023-07-24T01:10:25;19.80;94.80
7708;DHT22;3896;48.758;8.888;2023-07-24T01:13:14;19.80;95.30
7708;DHT22;3896;48.758;8.888;2023-07-24T01:15:54;19.70;94.60
7708;DHT22;3896;48.758;8.888;2023-07-24T01:18:22;19.60;94.40
7708;DHT22;3896;48.758;8.888;2023-07-24T01:20:53;19.60;94.50
7708;DHT22;3896;48.758;8.888;2023-07-24T01:26:16;19.50;93.90
7708;DHT22;3896;48.758;8.888;2023-07-24T01:28:42;19.40;94.40
7708;DHT22;3896;48.758;8.888;2023-07-24T01:31:07;19.40;94.30
7708;DHT22;3896;48.758;8.888;2023-07-24T01:33:33;19.30;94.10
7708;DHT22;3896;48.758;8.888;2023-07-24T01:36:02;19.30;94.20
7708;DHT22;3896;48.758;8.888;2023-07-24T01:38:30;19.20;93.70
7708;DHT22;3896;48.758;8.888;2023-07-24T01:40:56;19.10;93.50
7708;DHT22;3896;48.758;8.888;2023-07-24T01:43:24;19.10;93.60
7708;DHT22;3896;48.758;8.888;2023-07-24T01:45:49;19.00;94.40
7708;DHT22;3896;48.758;8.888;2023-07-24T01:48:15;19.00;94.80
7708;DHT22;3896;48.758;8.888;2023-07-24T01:50:41;18.90;95.20
7708;DHT22;3896;48.758;8.888;2023-07-24T01:53:06;18.90;95.50
7708;DHT22;3896;48.758;8.888;2023-07-24T01:55:32;18.90;95.80
7708;DHT22;3896;48.758;8.888;2023-07-24T01:57:57;18.80;95.40
7708;DHT22;3896;48.758;8.888;2023-07-24T02:00:23;18.70;95.30
7708;DHT22;3896;48.758;8.888;2023-07-24T02:02:48;18.70;96.50
7708;DHT22;3896;48.758;8.888;2023-07-24T02:05:14;18.70;97.00
7708;DHT22;3896;48.758;8.888;2023-07-24T02:07:39;18.70;97.10
7708;DHT22;3896;48.758;8.888;2023-07-24T02:12:35;18.60;97.60
7708;DHT22;3896;48.758;8.888;2023-07-24T02:15:01;18.60;97.10
7708;DHT22;3896;48.758;8.888;2023-07-24T02:17:26;18.60;97.00
7708;DHT22;3896;48.758;8.888;2023-07-24T02:19:52;18.60;96.70
7708;DHT22;3896;48.758;8.888;2023-07-24T02:22:17;18.50;96.90
7708;DHT22;3896;48.758;8.888;2023-07-24T02:24:43;18.50;97.10
7708;DHT22;3896;48.758;8.888;2023-07-24T02:27:12;18.50;96.80
7708;DHT22;3896;48.758;8.888;2023-07-24T02:29:37;18.50;96.50
7708;DHT22;3896;48.758;8.888;2023-07-24T02:32:03;18.50;96.70
7708;DHT22;3896;48.758;8.888;2023-07-24T02:34:29;18.50;96.40
7708;DHT22;3896;48.758;8.888;2023-07-24T02:36:55;18.50;96.80
7708;DHT22;3896;48.758;8.888;2023-07-24T02:39:21;18.50;97.10
7708;DHT22;3896;48.758;8.888;2023-07-24T02:41:50;18.50;96.90
7708;DHT22;3896;48.758;8.888;2023-07-24T02:44:15;18.40;97.00
7708;DHT22;3896;48.758;8.888;2023-07-24T02:46:41;18.40;96.90
7708;DHT22;3896;48.758;8.888;2023-07-24T02:49:07;18.40;96.60
7708;DHT22;3896;48.758;8.888;2023-07-24T02:51:32;18.40;96.80
7708;DHT22;3896;48.758;8.888;2023-07-24T02:53:58;18.40;96.90
7708;DHT22;3896;48.758;8.888;2023-07-24T02:56:23;18.40;97.00
7708;DHT22;3896;48.758;8.888;2023-07-24T02:58:49;18.40;97.30
7708;DHT22;3896;48.758;8.888;2023-07-24T03:01:15;18.30;97.20
7708;DHT22;3896;48.758;8.888;2023-07-24T03:03:41;18.40;97.10
7708;DHT22;3896;48.758;8.888;2023-07-24T03:06:07;18.40;97.10
7708;DHT22;3896;48.758;8.888;2023-07-24T03:08:33;18.30;97.00
7708;DHT22;3896;48.758;8.888;2023-07-24T03:10:59;18.30;97.40
7708;DHT22;3896;48.758;8.888;2023-07-24T03:13:25;18.30;97.60
7708;DHT22;3896;48.758;8.888;2023-07-24T03:15:55;18.20;97.70
7708;DHT22;3896;48.758;8.888;2023-07-24T03:18:21;18.20;97.40
7708;DHT22;3896;48.758;8.888;2023-07-24T03:20:46;18.10;97.80
7708;DHT22;3896;48.758;8.888;2023-07-24T03:23:12;18.10;98.70
7708;DHT22;3896;48.758;8.888;2023-07-24T03:25:38;18.10;98.70
7708;DHT22;3896;48.758;8.888;2023-07-24T03:28:03;18.10;99.00
7708;DHT22;3896;48.758;8.888;2023-07-24T03:30:29;18.10;98.80
7708;DHT22;3896;48.758;8.888;2023-07-24T03:32:55;18.10;98.50
7708;DHT22;3896;48.758;8.888;2023-07-24T03:35:20;18.10;98.70
7708;DHT22;3896;48.758;8.888;2023-07-24T03:37:46;18.00;99.20
7708;DHT22;3896;48.758;8.888;2023-07-24T03:40:12;18.00;99.20
7708;DHT22;3896;48.758;8.888;2023-07-24T03:42:37;18.00;99.10
7708;DHT22;3896;48.758;8.888;2023-07-24T03:45:03;18.00;99.60
7708;DHT22;3896;48.758;8.888;2023-07-24T03:47:29;18.00;99.50
7708;DHT22;3896;48.758;8.888;2023-07-24T03:49:54;17.90;99.90
7708;DHT22;3896;48.758;8.888;2023-07-24T03:52:20;17.90;99.90
7708;DHT22;3896;48.758;8.888;2023-07-24T03:54:46;17.90;99.90
7708;DHT22;3896;48.758;8.888;2023-07-24T03:57:11;17.90;99.90
7708;DHT22;3896;48.758;8.888;2023-07-24T03:59:37;17.90;99.90
7708;DHT22;3896;48.758;8.888;2023-07-24T04:02:03;17.90;99.90
7708;DHT22;3896;48.758;8.888;2023-07-24T04:04:28;17.90;99.90
7708;DHT22;3896;48.758;8.888;2023-07-24T04:06:54;17.80;99.90
7708;DHT22;3896;48.758;8.888;2023-07-24T04:09:19;17.80;99.90
7708;DHT22;3896;48.758;8.888;2023-07-24T04:11:45;17.80;99.90
7708;DHT22;3896;48.758;8.888;2023-07-24T04:14:11;17.80;99.90
7708;DHT22;3896;48.758;8.888;2023-07-24T04:16:36;17.80;99.90
7708;DHT22;3896;48.758;8.888;2023-07-24T04:19:02;17.80;99.90
7708;DHT22;3896;48.758;8.888;2023-07-24T04:21:28;17.70;99.90
7708;DHT22;3896;48.758;8.888;2023-07-24T04:23:53;17.70;99.90
7708;DHT22;3896;48.758;8.888;2023-07-24T04:26:19;17.80;99.90
7708;DHT22;3896;48.758;8.888;2023-07-24T04:28:44;17.70;99.90
7708;DHT22;3896;48.758;8.888;2023-07-24T04:31:10;17.70;99.90
7708;DHT22;3896;48.758;8.888;2023-07-24T04:33:35;17.70;99.90
7708;DHT22;3896;48.758;8.888;2023-07-24T04:36:01;17.70;99.90
7708;DHT22;3896;48.758;8.888;2023-07-24T04:38:27;17.80;99.90
7708;DHT22;3896;48.758;8.888;2023-07-24T04:40:52;17.80;99.90
7708;DHT22;3896;48.758;8.888;2023-07-24T04:43:18;17.80;99.90
7708;DHT22;3896;48.758;8.888;2023-07-24T04:45:43;17.80;99.90
7708;DHT22;3896;48.758;8.888;2023-07-24T04:48:09;17.80;99.90
7708;DHT22;3896;48.758;8.888;2023-07-24T04:50:34;17.80;99.90
7708;DHT22;3896;48.758;8.888;2023-07-24T04:53:00;17.80;99.90
7708;DHT22;3896;48.758;8.888;2023-07-24T04:55:26;17.80;99.90
7708;DHT22;3896;48.758;8.888;2023-07-24T04:57:51;17.80;99.90
7708;DHT22;3896;48.758;8.888;2023-07-24T05:00:17;17.80;99.90
7708;DHT22;3896;48.758;8.888;2023-07-24T05:02:42;17.80;99.90
7708;DHT22;3896;48.758;8.888;2023-07-24T05:05:08;17.90;99.90
7708;DHT22;3896;48.758;8.888;2023-07-24T05:07:34;17.90;99.90
7708;DHT22;3896;48.758;8.888;2023-07-24T05:10:00;17.90;99.90
7708;DHT22;3896;48.758;8.888;2023-07-24T05:12:25;17.90;99.90
7708;DHT22;3896;48.758;8.888;2023-07-24T05:14:51;17.90;99.90
7708;DHT22;3896;48.758;8.888;2023-07-24T05:17:17;17.90;99.90
7708;DHT22;3896;48.758;8.888;2023-07-24T05:19:42;18.00;99.90
7708;DHT22;3896;48.758;8.888;2023-07-24T05:22:08;18.00;99.90
7708;DHT22;3896;48.758;8.888;2023-07-24T05:24:36;18.00;99.90
7708;DHT22;3896;48.758;8.888;2023-07-24T05:27:02;18.00;99.90
7708;DHT22;3896;48.758;8.888;2023-07-24T05:29:28;18.00;99.90
7708;DHT22;3896;48.758;8.888;2023-07-24T05:31:53;18.00;99.90
7708;DHT22;3896;48.758;8.888;2023-07-24T05:34:19;18.10;99.90
7708;DHT22;3896;48.758;8.888;2023-07-24T05:36:44;18.10;99.90
7708;DHT22;3896;48.758;8.888;2023-07-24T05:39:10;18.10;99.90
7708;DHT22;3896;48.758;8.888;2023-07-24T05:41:35;18.20;99.90
7708;DHT22;3896;48.758;8.888;2023-07-24T05:44:01;18.20;99.90
7708;DHT22;3896;48.758;8.888;2023-07-24T05:46:26;18.20;99.90
7708;DHT22;3896;48.758;8.888;2023-07-24T05:48:52;18.20;99.90
7708;DHT22;3896;48.758;8.888;2023-07-24T05:51:17;18.30;99.90
7708;DHT22;3896;48.758;8.888;2023-07-24T05:53:43;18.30;99.90
7708;DHT22;3896;48.758;8.888;2023-07-24T05:56:08;18.30;99.50
7708;DHT22;3896;48.758;8.888;2023-07-24T05:58:34;18.40;99.30
7708;DHT22;3896;48.758;8.888;2023-07-24T06:01:00;18.40;98.50
7708;DHT22;3896;48.758;8.888;2023-07-24T06:03:26;18.40;98.10
7708;DHT22;3896;48.758;8.888;2023-07-24T06:05:53;18.50;97.60
7708;DHT22;3896;48.758;8.888;2023-07-24T06:08:19;18.50;97.20
7708;DHT22;3896;48.758;8.888;2023-07-24T06:10:49;18.50;97.00
7708;DHT22;3896;48.758;8.888;2023-07-24T06:13:16;18.60;96.70
7708;DHT22;3896;48.758;8.888;2023-07-24T06:15:41;18.60;96.40
7708;DHT22;3896;48.758;8.888;2023-07-24T06:18:09;18.70;96.20
7708;DHT22;3896;48.758;8.888;2023-07-24T06:20:34;18.70;95.90
7708;DHT22;3896;48.758;8.888;2023-07-24T06:23:00;18.80;95.60
7708;DHT22;3896;48.758;8.888;2023-07-24T06:25:25;18.80;95.30
7708;DHT22;3896;48.758;8.888;2023-07-24T06:27:51;18.90;95.20
7708;DHT22;3896;48.758;8.888;2023-07-24T06:30:17;18.90;95.30
7708;DHT22;3896;48.758;8.888;2023-07-24T06:32:42;19.00;95.20
7708;DHT22;3896;48.758;8.888;2023-07-24T06:35:08;19.00;95.10
7708;DHT22;3896;48.758;8.888;2023-07-24T06:37:34;19.00;94.90
7708;DHT22;3896;48.758;8.888;2023-07-24T06:39:59;19.10;95.20
7708;DHT22;3896;48.758;8.888;2023-07-24T06:42:25;19.10;95.10
7708;DHT22;3896;48.758;8.888;2023-07-24T06:44:50;19.20;95.10
7708;DHT22;3896;48.758;8.888;2023-07-24T06:47:16;19.20;95.00
7708;DHT22;3896;48.758;8.888;2023-07-24T06:49:41;19.20;95.40
7708;DHT22;3896;48.758;8.888;2023-07-24T06:52:07;19.30;95.30
7708;DHT22;3896;48.758;8.888;2023-07-24T06:54:32;19.30;95.00
7708;DHT22;3896;48.758;8.888;2023-07-24T06:56:58;19.40;95.10
7708;DHT22;3896;48.758;8.888;2023-07-24T06:59:24;19.40;95.00
7708;DHT22;3896;48.758;8.888;2023-07-24T07:01:49;19.50;94.70
7708;DHT22;3896;48.758;8.888;2023-07-24T07:04:16;19.60;94.50
7708;DHT22;3896;48.758;8.888;2023-07-24T07:06:41;19.60;94.10
7708;DHT22;3896;48.758;8.888;2023-07-24T07:09:07;19.70;93.70
7708;DHT22;3896;48.758;8.888;2023-07-24T07:11:32;19.70;93.60
7708;DHT22;3896;48.758;8.888;2023-07-24T07:13:58;19.80;93.30
7708;DHT22;3896;48.758;8.888;2023-07-24T07:16:23;19.80;92.90
7708;DHT22;3896;48.758;8.888;2023-07-24T07:18:49;19.90;92.80
7708;DHT22;3896;48.758;8.888;2023-07-24T07:21:15;19.90;92.70
7708;DHT22;3896;48.758;8.888;2023-07-24T07:23:40;20.00;92.50
7708;DHT22;3896;48.758;8.888;2023-07-24T07:26:06;20.00;92.20
7708;DHT22;3896;48.758;8.888;2023-07-24T07:28:31;20.10;91.90
7708;DHT22;3896;48.758;8.888;2023-07-24T07:30:57;20.10;91.70
7708;DHT22;3896;48.758;8.888;2023-07-24T07:33:22;20.10;91.50
7708;DHT22;3896;48.758;8.888;2023-07-24T07:35:49;20.20;91.40
7708;DHT22;3896;48.758;8.888;2023-07-24T07:38:14;20.20;91.40
7708;DHT22;3896;48.758;8.888;2023-07-24T07:40:40;20.30;91.60
7708;DHT22;3896;48.758;8.888;2023-07-24T07:43:06;20.30;91.70
7708;DHT22;3896;48.758;8.888;2023-07-24T07:45:31;20.40;91.70
7708;DHT22;3896;48.758;8.888;2023-07-24T07:47:57;20.40;91.70
7708;DHT22;3896;48.758;8.888;2023-07-24T07:50:22;20.40;91.70
7708;DHT22;3896;48.758;8.888;2023-07-24T07:52:51;20.50;91.70
7708;DHT22;3896;48.758;8.888;2023-07-24T07:55:20;20.50;91.70
7708;DHT22;3896;48.758;8.888;2023-07-24T07:57:46;20.50;91.70
7708;DHT22;3896;48.758;8.888;2023-07-24T08:00:12;20.60;92.40
7708;DHT22;3896;48.758;8.888;2023-07-24T08:02:38;20.60;92.90
7708;DHT22;3896;48.758;8.888;2023-07-24T08:05:09;20.60;93.10
7708;DHT22;3896;48.758;8.888;2023-07-24T08:07:35;20.60;93.10
7708;DHT22;3896;48.758;8.888;2023-07-24T08:12:33;20.70;94.20
7708;DHT22;3896;48.758;8.888;2023-07-24T08:14:59;20.60;95.10
7708;DHT22;3896;48.758;8.888;2023-07-24T08:19:52;20.60;97.20
7708;DHT22;3896;48.758;8.888;2023-07-24T08:22:18;20.60;98.50
7708;DHT22;3896;48.758;8.888;2023-07-24T08:24:45;20.60;99.90
7708;DHT22;3896;48.758;8.888;2023-07-24T08:27:10;20.60;99.90
7708;DHT22;3896;48.758;8.888;2023-07-24T08:29:36;20.60;99.90
7708;DHT22;3896;48.758;8.888;2023-07-24T08:32:03;20.50;99.90
7708;DHT22;3896;48.758;8.888;2023-07-24T08:34:29;20.50;99.90
7708;DHT22;3896;48.758;8.888;2023-07-24T08:36:55;20.50;99.90
7708;DHT22;3896;48.758;8.888;2023-07-24T08:39:20;20.50;99.90
7708;DHT22;3896;48.758;8.888;2023-07-24T08:41:46;20.50;99.90
7708;DHT22;3896;48.758;8.888;2023-07-24T08:44:11;20.50;99.90
7708;DHT22;3896;48.758;8.888;2023-07-24T08:46:38;20.50;99.90
7708;DHT22;3896;48.758;8.888;2023-07-24T08:49:15;20.60;99.90
7708;DHT22;3896;48.758;8.888;2023-07-24T08:51:41;20.60;99.90
7708;DHT22;3896;48.758;8.888;2023-07-24T08:54:08;20.60;99.90
7708;DHT22;3896;48.758;8.888;2023-07-24T08:56:33;20.60;99.90
7708;DHT22;3896;48.758;8.888;2023-07-24T08:59:01;20.70;99.90
7708;DHT22;3896;48.758;8.888;2023-07-24T09:01:26;20.70;99.90
7708;DHT22;3896;48.758;8.888;2023-07-24T09:03:52;20.80;99.90
7708;DHT22;3896;48.758;8.888;2023-07-24T09:06:18;20.80;99.90
7708;DHT22;3896;48.758;8.888;2023-07-24T09:08:43;20.90;99.90
7708;DHT22;3896;48.758;8.888;2023-07-24T09:11:10;20.90;99.90
7708;DHT22;3896;48.758;8.888;2023-07-24T09:13:42;21.00;99.90
7708;DHT22;3896;48.758;8.888;2023-07-24T09:16:08;21.10;99.90
7708;DHT22;3896;48.758;8.888;2023-07-24T09:18:41;21.20;99.90
7708;DHT22;3896;48.758;8.888;2023-07-24T09:21:08;21.20;99.90
7708;DHT22;3896;48.758;8.888;2023-07-24T09:23:33;21.30;99.90
7708;DHT22;3896;48.758;8.888;2023-07-24T09:25:59;21.40;99.90
7708;DHT22;3896;48.758;8.888;2023-07-24T09:28:30;21.40;99.90
7708;DHT22;3896;48.758;8.888;2023-07-24T09:30:57;21.50;99.90
7708;DHT22;3896;48.758;8.888;2023-07-24T09:33:41;21.60;99.90
7708;DHT22;3896;48.758;8.888;2023-07-24T09:36:09;21.70;99.90
7708;DHT22;3896;48.758;8.888;2023-07-24T09:38:37;21.70;99.90
7708;DHT22;3896;48.758;8.888;2023-07-24T09:41:03;21.80;99.90
7708;DHT22;3896;48.758;8.888;2023-07-24T09:43:30;21.80;99.90
7708;DHT22;3896;48.758;8.888;2023-07-24T09:45:56;21.90;99.90
7708;DHT22;3896;48.758;8.888;2023-07-24T09:48:24;21.90;99.90
7708;DHT22;3896;48.758;8.888;2023-07-24T09:50:57;21.90;99.90
7708;DHT22;3896;48.758;8.888;2023-07-24T09:53:52;21.90;99.90
7708;DHT22;3896;48.758;8.888;2023-07-24T09:56:19;22.00;99.90
7708;DHT22;3896;48.758;8.888;2023-07-24T09:58:46;22.00;99.90
7708;DHT22;3896;48.758;8.888;2023-07-24T10:01:11;22.00;99.90
7708;DHT22;3896;48.758;8.888;2023-07-24T10:03:45;22.10;99.90
7708;DHT22;3896;48.758;8.888;2023-07-24T10:06:11;22.10;99.90
7708;DHT22;3896;48.758;8.888;2023-07-24T10:08:38;22.10;99.90
7708;DHT22;3896;48.758;8.888;2023-07-24T10:11:04;22.10;99.90
7708;DHT22;3896;48.758;8.888;2023-07-24T10:13:30;22.10;99.90
7708;DHT22;3896;48.758;8.888;2023-07-24T10:15:56;22.10;99.90
7708;DHT22;3896;48.758;8.888;2023-07-24T10:18:27;22.10;99.90
7708;DHT22;3896;48.758;8.888;2023-07-24T10:21:09;22.10;99.90
7708;DHT22;3896;48.758;8.888;2023-07-24T10:23:45;22.10;99.90
7708;DHT22;3896;48.758;8.888;2023-07-24T10:26:14;22.10;99.90
7708;DHT22;3896;48.758;8.888;2023-07-24T10:28:41;22.10;99.90
7708;DHT22;3896;48.758;8.888;2023-07-24T10:31:18;22.10;99.90
7708;DHT22;3896;48.758;8.888;2023-07-24T10:33:45;22.10;99.90
7708;DHT22;3896;48.758;8.888;2023-07-24T10:36:11;22.00;99.90
7708;DHT22;3896;48.758;8.888;2023-07-24T10:38:43;22.00;99.90
7708;DHT22;3896;48.758;8.888;2023-07-24T10:41:10;22.00;99.90
7708;DHT22;3896;48.758;8.888;2023-07-24T10:43:47;22.00;99.90
7708;DHT22;3896;48.758;8.888;2023-07-24T10:46:14;21.90;99.90
7708;DHT22;3896;48.758;8.888;2023-07-24T10:48:44;21.90;99.90
7708;DHT22;3896;48.758;8.888;2023-07-24T10:51:10;21.90;99.90
7708;DHT22;3896;48.758;8.888;2023-07-24T10:53:37;21.80;99.90
7708;DHT22;3896;48.758;8.888;2023-07-24T10:56:06;21.80;99.90
7708;DHT22;3896;48.758;8.888;2023-07-24T10:58:33;21.80;99.90
7708;DHT22;3896;48.758;8.888;2023-07-24T11:01:03;21.70;99.90
7708;DHT22;3896;48.758;8.888;2023-07-24T11:03:30;21.70;99.90
7708;DHT22;3896;48.758;8.888;2023-07-24T11:05:57;21.70;99.90
7708;DHT22;3896;48.758;8.888;2023-07-24T11:08:24;21.60;99.90
7708;DHT22;3896;48.758;8.888;2023-07-24T11:10:51;21.60;99.90
7708;DHT22;3896;48.758;8.888;2023-07-24T11:13:24;21.60;99.90
7708;DHT22;3896;48.758;8.888;2023-07-24T11:15:50;21.50;99.90
7708;DHT22;3896;48.758;8.888;2023-07-24T11:18:18;21.50;99.90
7708;DHT22;3896;48.758;8.888;2023-07-24T11:20:53;21.50;99.90
7708;DHT22;3896;48.758;8.888;2023-07-24T11:23:19;21.50;99.90
7708;DHT22;3896;48.758;8.888;2023-07-24T11:25:46;21.40;99.90
7708;DHT22;3896;48.758;8.888;2023-07-24T11:28:13;21.30;99.90
7708;DHT22;3896;48.758;8.888;2023-07-24T11:30:39;21.30;99.90
7708;DHT22;3896;48.758;8.888;2023-07-24T11:33:07;21.30;99.90
7708;DHT22;3896;48.758;8.888;2023-07-24T11:35:34;21.30;99.90
7708;DHT22;3896;48.758;8.888;2023-07-24T11:38:01;21.30;99.90
7708;DHT22;3896;48.758;8.888;2023-07-24T11:43:01;21.40;99.90
7708;DHT22;3896;48.758;8.888;2023-07-24T11:45:27;21.50;99.90
7708;DHT22;3896;48.758;8.888;2023-07-24T11:47:53;21.60;99.90
7708;DHT22;3896;48.758;8.888;2023-07-24T11:50:19;21.60;99.90
7708;DHT22;3896;48.758;8.888;2023-07-24T11:52:48;21.70;99.90
7708;DHT22;3896;48.758;8.888;2023-07-24T11:55:17;21.70;99.90
7708;DHT22;3896;48.758;8.888;2023-07-24T11:57:43;21.80;99.90
7708;DHT22;3896;48.758;8.888;2023-07-24T12:00:22;21.80;99.90
7708;DHT22;3896;48.758;8.888;2023-07-24T12:02:48;21.80;99.90
7708;DHT22;3896;48.758;8.888;2023-07-24T12:05:14;21.90;99.90
7708;DHT22;3896;48.758;8.888;2023-07-24T12:07:41;21.90;99.90
7708;DHT22;3896;48.758;8.888;2023-07-24T12:10:07;22.00;99.90
7708;DHT22;3896;48.758;8.888;2023-07-24T12:12:42;22.00;99.90
7708;DHT22;3896;48.758;8.888;2023-07-24T12:15:08;22.00;99.90
7708;DHT22;3896;48.758;8.888;2023-07-24T12:17:35;22.10;99.90
7708;DHT22;3896;48.758;8.888;2023-07-24T12:20:01;22.10;99.90
7708;DHT22;3896;48.758;8.888;2023-07-24T12:22:27;22.20;99.90
7708;DHT22;3896;48.758;8.888;2023-07-24T12:24:53;22.20;99.90
7708;DHT22;3896;48.758;8.888;2023-07-24T12:27:18;22.30;99.90
7708;DHT22;3896;48.758;8.888;2023-07-24T12:29:44;22.30;99.90
7708;DHT22;3896;48.758;8.888;2023-07-24T12:32:10;22.30;99.90
7708;DHT22;3896;48.758;8.888;2023-07-24T12:34:35;22.40;99.90
7708;DHT22;3896;48.758;8.888;2023-07-24T12:37:01;22.40;99.90
7708;DHT22;3896;48.758;8.888;2023-07-24T12:39:26;22.40;99.90
7708;DHT22;3896;48.758;8.888;2023-07-24T12:41:52;22.40;99.90
7708;DHT22;3896;48.758;8.888;2023-07-24T12:44:17;22.50;99.90
7708;DHT22;3896;48.758;8.888;2023-07-24T12:46:43;22.50;99.90
7708;DHT22;3896;48.758;8.888;2023-07-24T12:49:08;22.60;99.90
7708;DHT22;3896;48.758;8.888;2023-07-24T12:51:34;22.60;99.90
7708;DHT22;3896;48.758;8.888;2023-07-24T12:53:59;22.70;99.90
7708;DHT22;3896;48.758;8.888;2023-07-24T12:56:25;22.80;99.90
7708;DHT22;3896;48.758;8.888;2023-07-24T12:58:50;22.90;99.90
7708;DHT22;3896;48.758;8.888;2023-07-24T13:01:16;22.90;99.90
7708;DHT22;3896;48.758;8.888;2023-07-24T13:03:41;23.00;99.90
7708;DHT22;3896;48.758;8.888;2023-07-24T13:06:07;23.10;99.90
7708;DHT22;3896;48.758;8.888;2023-07-24T13:08:33;23.20;99.90
7708;DHT22;3896;48.758;8.888;2023-07-24T13:10:58;23.30;99.90
7708;DHT22;3896;48.758;8.888;2023-07-24T13:13:24;23.40;99.90
7708;DHT22;3896;48.758;8.888;2023-07-24T13:15:49;23.60;99.90
7708;DHT22;3896;48.758;8.888;2023-07-24T13:18:16;23.80;99.90
7708;DHT22;3896;48.758;8.888;2023-07-24T13:20:42;24.00;99.90
7708;DHT22;3896;48.758;8.888;2023-07-24T13:23:08;24.30;98.60
7708;DHT22;3896;48.758;8.888;2023-07-24T13:25:33;24.50;97.20
7708;DHT22;3896;48.758;8.888;2023-07-24T13:27:59;24.70;95.00
7708;DHT22;3896;48.758;8.888;2023-07-24T13:30:25;25.00;93.20
7708;DHT22;3896;48.758;8.888;2023-07-24T13:32:50;25.10;91.40
7708;DHT22;3896;48.758;8.888;2023-07-24T13:35:16;25.30;90.90
7708;DHT22;3896;48.758;8.888;2023-07-24T13:37:42;25.40;89.80
7708;DHT22;3896;48.758;8.888;2023-07-24T13:40:08;25.60;89.20
7708;DHT22;3896;48.758;8.888;2023-07-24T13:42:34;25.80;88.00
7708;DHT22;3896;48.758;8.888;2023-07-24T13:44:59;26.00;84.10
7708;DHT22;3896;48.758;8.888;2023-07-24T13:47:25;26.30;81.20
7708;DHT22;3896;48.758;8.888;2023-07-24T13:49:50;26.50;78.80
7708;DHT22;3896;48.758;8.888;2023-07-24T13:52:16;26.70;77.90
7708;DHT22;3896;48.758;8.888;2023-07-24T13:54:41;26.90;75.80
7708;DHT22;3896;48.758;8.888;2023-07-24T13:57:07;27.10;75.40
7708;DHT22;3896;48.758;8.888;2023-07-24T13:59:37;27.30;74.30
7708;DHT22;3896;48.758;8.888;2023-07-24T14:02:06;27.50;73.80
7708;DHT22;3896;48.758;8.888;2023-07-24T14:04:31;27.70;72.20
7708;DHT22;3896;48.758;8.888;2023-07-24T14:06:57;27.90;71.40
7708;DHT22;3896;48.758;8.888;2023-07-24T14:09:23;28.00;69.50
7708;DHT22;3896;48.758;8.888;2023-07-24T14:11:48;28.20;68.60
7708;DHT22;3896;48.758;8.888;2023-07-24T14:14:17;28.40;68.20
7708;DHT22;3896;48.758;8.888;2023-07-24T14:16:43;28.60;67.00
7708;DHT22;3896;48.758;8.888;2023-07-24T14:19:08;28.70;66.20
7708;DHT22;3896;48.758;8.888;2023-07-24T14:21:34;28.90;65.00
7708;DHT22;3896;48.758;8.888;2023-07-24T14:23:59;28.90;64.10
7708;DHT22;3896;48.758;8.888;2023-07-24T14:26:25;29.00;63.30
7708;DHT22;3896;48.758;8.888;2023-07-24T14:28:50;29.00;62.50
7708;DHT22;3896;48.758;8.888;2023-07-24T14:31:16;29.00;62.60
7708;DHT22;3896;48.758;8.888;2023-07-24T14:33:42;29.10;61.70
7708;DHT22;3896;48.758;8.888;2023-07-24T14:36:07;29.10;60.80
7708;DHT22;3896;48.758;8.888;2023-07-24T14:38:33;29.10;61.10
7708;DHT22;3896;48.758;8.888;2023-07-24T14:40:58;29.10;60.20
7708;DHT22;3896;48.758;8.888;2023-07-24T14:43:24;29.10;59.90
7708;DHT22;3896;48.758;8.888;2023-07-24T14:45:49;29.00;59.20
7708;DHT22;3896;48.758;8.888;2023-07-24T14:48:15;29.10;59.30
7708;DHT22;3896;48.758;8.888;2023-07-24T14:50:42;29.10;59.40
7708;DHT22;3896;48.758;8.888;2023-07-24T14:53:07;29.10;58.70
7708;DHT22;3896;48.758;8.888;2023-07-24T14:55:33;29.20;58.30
7708;DHT22;3896;48.758;8.888;2023-07-24T14:57:58;29.20;58.10
7708;DHT22;3896;48.758;8.888;2023-07-24T15:00:24;29.20;58.40
7708;DHT22;3896;48.758;8.888;2023-07-24T15:02:49;29.30;58.10
7708;DHT22;3896;48.758;8.888;2023-07-24T15:05:15;29.30;58.00
7708;DHT22;3896;48.758;8.888;2023-07-24T15:07:40;29.30;57.70
7708;DHT22;3896;48.758;8.888;2023-07-24T15:10:06;29.40;58.00
7708;DHT22;3896;48.758;8.888;2023-07-24T15:12:32;29.40;57.80
7708;DHT22;3896;48.758;8.888;2023-07-24T15:14:57;29.40;57.90
7708;DHT22;3896;48.758;8.888;2023-07-24T15:17:23;29.40;57.80
7708;DHT22;3896;48.758;8.888;2023-07-24T15:19:49;29.30;57.80
7708;DHT22;3896;48.758;8.888;2023-07-24T15:22:14;29.30;57.20
7708;DHT22;3896;48.758;8.888;2023-07-24T15:24:40;29.20;57.10
7708;DHT22;3896;48.758;8.888;2023-07-24T15:27:07;29.20;56.90
7708;DHT22;3896;48.758;8.888;2023-07-24T15:29:37;29.10;56.50
7708;DHT22;3896;48.758;8.888;2023-07-24T15:32:03;29.00;56.40
7708;DHT22;3896;48.758;8.888;2023-07-24T15:34:29;28.90;56.40
7708;DHT22;3896;48.758;8.888;2023-07-24T15:36:54;28.80;56.60
7708;DHT22;3896;48.758;8.888;2023-07-24T15:39:20;28.70;56.80
7708;DHT22;3896;48.758;8.888;2023-07-24T15:41:45;28.60;57.10
7708;DHT22;3896;48.758;8.888;2023-07-24T15:44:11;28.50;57.10
7708;DHT22;3896;48.758;8.888;2023-07-24T15:46:36;28.40;57.40
7708;DHT22;3896;48.758;8.888;2023-07-24T15:49:02;28.30;57.60
7708;DHT22;3896;48.758;8.888;2023-07-24T15:51:27;28.20;57.60
7708;DHT22;3896;48.758;8.888;2023-07-24T15:53:53;28.10;57.80
7708;DHT22;3896;48.758;8.888;2023-07-24T15:56:19;28.10;57.80
7708;DHT22;3896;48.758;8.888;2023-07-24T15:58:46;28.00;58.00
7708;DHT22;3896;48.758;8.888;2023-07-24T16:01:12;27.90;58.40
7708;DHT22;3896;48.758;8.888;2023-07-24T16:03:38;27.80;58.50
7708;DHT22;3896;48.758;8.888;2023-07-24T16:06:03;27.80;58.70
7708;DHT22;3896;48.758;8.888;2023-07-24T16:08:29;27.70;59.00
7708;DHT22;3896;48.758;8.888;2023-07-24T16:10:54;27.60;59.10